sensor_id;sensor_type;location;lat;lon;timestamp;temperature;humidity
32534;DHT22;18973;48.580;8.912;2023-03-21T00:01:14;10.40;99.90
32534;DHT22;18973;48.580;8.912;2023-03-21T00:03:40;10.40;99.90
32534;DHT22;18973;48.580;8.912;2023-03-21T00:06:10;10.10;99.90
32534;DHT22;18973;48.580;8.912;2023-03-21T00:08:36;9.90;99.90
32534;DHT22;18973;48.580;8.912;2023-03-21T00:11:05;10.00;99.90
32534;DHT22;18973;48.580;8.912;2023-03-21T00:13:32;10.10;99.90
32534;DHT22;18973;48.580;8.912;2023-03-21T00:16:12;10.10;99.90
32534;DHT22;18973;48.580;8.912;2023-03-21T00:18:48;10.00;99.90
32534;DHT22;18973;48.580;8.912;2023-03-21T00:21:19;9.80;99.90
32534;DHT22;18973;48.580;8.912;2023-03-21T00:23:45;10.00;99.90
32534;DHT22;18973;48.580;8.912;2023-03-21T00:26:12;10.10;99.90
32534;DHT22;18973;48.580;8.912;2023-03-21T00:28:39;10.20;99.90
32534;DHT22;18973;48.580;8.912;2023-03-21T00:31:06;10.00;99.90
32534;DHT22;18973;48.580;8.912;2023-03-21T00:33:33;9.90;99.90
32534;DHT22;18973;48.580;8.912;2023-03-21T00:36:00;10.00;99.90
32534;DHT22;18973;48.580;8.912;2023-03-21T00:38:27;10.20;99.90
32534;DHT22;18973;48.580;8.912;2023-03-21T00:40:53;10.00;99.90
32534;DHT22;18973;48.580;8.912;2023-03-21T00:43:19;10.10;99.90
32534;DHT22;18973;48.580;8.912;2023-03-21T00:45:49;10.20;99.90
32534;DHT22;18973;48.580;8.912;2023-03-21T00:48:16;10.30;99.90
32534;DHT22;18973;48.580;8.912;2023-03-21T00:50:44;10.30;99.90
32534;DHT22;18973;48.580;8.912;2023-03-21T00:53:11;10.30;99.90
32534;DHT22;18973;48.580;8.912;2023-03-21T00:55:37;10.00;99.90
32534;DHT22;18973;48.580;8.912;2023-03-21T00:58:04;10.10;99.90
32534;DHT22;18973;48.580;8.912;2023-03-21T01:00:30;10.20;99.90
32534;DHT22;18973;48.580;8.912;2023-03-21T01:02:57;10.30;99.90
32534;DHT22;18973;48.580;8.912;2023-03-21T01:05:28;10.30;99.90
32534;DHT22;18973;48.580;8.912;2023-03-21T01:08:14;10.30;99.90
32534;DHT22;18973;48.580;8.912;2023-03-21T01:10:43;10.30;99.90
32534;DHT22;18973;48.580;8.912;2023-03-21T01:13:10;10.30;99.90
32534;DHT22;18973;48.580;8.912;2023-03-21T01:15:36;10.30;99.90
32534;DHT22;18973;48.580;8.912;2023-03-21T01:18:02;10.30;99.90
32534;DHT22;18973;48.580;8.912;2023-03-21T01:20:28;10.20;99.90
32534;DHT22;18973;48.580;8.912;2023-03-21T01:22:54;10.20;99.90
32534;DHT22;18973;48.580;8.912;2023-03-21T01:25:20;10.10;99.90
32534;DHT22;18973;48.580;8.912;2023-03-21T01:27:46;10.10;99.90
32534;DHT22;18973;48.580;8.912;2023-03-21T01:30:12;10.00;99.90
32534;DHT22;18973;48.580;8.912;2023-03-21T01:32:38;9.80;99.90
32534;DHT22;18973;48.580;8.912;2023-03-21T01:35:04;9.70;99.90
32534;DHT22;18973;48.580;8.912;2023-03-21T01:37:31;9.70;99.90
32534;DHT22;18973;48.580;8.912;2023-03-21T01:39:57;9.80;99.90
32534;DHT22;18973;48.580;8.912;2023-03-21T01:42:22;9.80;99.90
32534;DHT22;18973;48.580;8.912;2023-03-21T01:47:22;9.90;99.90
32534;DHT22;18973;48.580;8.912;2023-03-21T01:49:50;9.80;99.90
32534;DHT22;18973;48.580;8.912;2023-03-21T01:52:20;9.80;99.90
32534;DHT22;18973;48.580;8.912;2023-03-21T01:54:49;9.80;99.90
32534;DHT22;18973;48.580;8.912;2023-03-21T01:57:30;9.90;99.90
32534;DHT22;18973;48.580;8.912;2023-03-21T01:59:59;9.90;99.90
32534;DHT22;18973;48.580;8.912;2023-03-21T02:02:32;9.90;99.90
32534;DHT22;18973;48.580;8.912;2023-03-21T02:05:03;9.80;99.90
32534;DHT22;18973;48.580;8.912;2023-03-21T02:07:31;9.70;99.90
32534;DHT22;18973;48.580;8.912;2023-03-21T02:10:02;9.60;99.90
32534;DHT22;18973;48.580;8.912;2023-03-21T02:12:30;9.60;99.90
32534;DHT22;18973;48.580;8.912;2023-03-21T02:14:56;9.70;99.90
32534;DHT22;18973;48.580;8.912;2023-03-21T02:28:28;9.50;99.90
32534;DHT22;18973;48.580;8.912;2023-03-21T02:42:50;9.40;99.90
32534;DHT22;18973;48.580;8.912;2023-03-21T02:45:21;9.40;99.90
32534;DHT22;18973;48.580;8.912;2023-03-21T02:47:56;9.40;99.90
32534;DHT22;18973;48.580;8.912;2023-03-21T02:50:41;9.40;99.90
32534;DHT22;18973;48.580;8.912;2023-03-21T02:53:09;9.40;99.90
32534;DHT22;18973;48.580;8.912;2023-03-21T02:55:36;9.50;99.90
32534;DHT22;18973;48.580;8.912;2023-03-21T02:58:08;9.50;99.90
32534;DHT22;18973;48.580;8.912;2023-03-21T03:00:35;9.60;99.90
32534;DHT22;18973;48.580;8.912;2023-03-21T03:03:02;9.50;99.90
32534;DHT22;18973;48.580;8.912;2023-03-21T03:05:30;9.40;99.90
32534;DHT22;18973;48.580;8.912;2023-03-21T03:19:07;9.40;99.90
32534;DHT22;18973;48.580;8.912;2023-03-21T03:21:46;9.30;99.90
32534;DHT22;18973;48.580;8.912;2023-03-21T03:29:47;9.20;99.90
32534;DHT22;18973;48.580;8.912;2023-03-21T03:34:49;9.10;99.90
32534;DHT22;18973;48.580;8.912;2023-03-21T03:37:20;9.00;99.90
32534;DHT22;18973;48.580;8.912;2023-03-21T03:40:14;8.90;99.90
32534;DHT22;18973;48.580;8.912;2023-03-21T03:42:58;8.90;99.90
32534;DHT22;18973;48.580;8.912;2023-03-21T03:45:31;8.80;99.90
32534;DHT22;18973;48.580;8.912;2023-03-21T03:50:37;8.60;99.90
32534;DHT22;18973;48.580;8.912;2023-03-21T03:53:14;8.50;99.90
32534;DHT22;18973;48.580;8.912;2023-03-21T03:55:42;8.40;99.90
32534;DHT22;18973;48.580;8.912;2023-03-21T03:58:08;8.40;99.90
32534;DHT22;18973;48.580;8.912;2023-03-21T04:00:34;8.30;99.90
32534;DHT22;18973;48.580;8.912;2023-03-21T04:02:59;8.30;99.90
32534;DHT22;18973;48.580;8.912;2023-03-21T04:05:26;8.40;99.90
32534;DHT22;18973;48.580;8.912;2023-03-21T04:07:52;8.30;99.90
32534;DHT22;18973;48.580;8.912;2023-03-21T04:10:19;8.30;99.90
32534;DHT22;18973;48.580;8.912;2023-03-21T04:12:47;8.40;99.90
32534;DHT22;18973;48.580;8.912;2023-03-21T04:15:12;8.50;99.90
32534;DHT22;18973;48.580;8.912;2023-03-21T04:17:38;8.50;99.90
32534;DHT22;18973;48.580;8.912;2023-03-21T04:20:05;8.60;99.90
32534;DHT22;18973;48.580;8.912;2023-03-21T04:22:32;8.50;99.90
32534;DHT22;18973;48.580;8.912;2023-03-21T04:24:59;8.50;99.90
32534;DHT22;18973;48.580;8.912;2023-03-21T04:27:26;8.40;99.90
32534;DHT22;18973;48.580;8.912;2023-03-21T04:29:52;8.60;99.90
32534;DHT22;18973;48.580;8.912;2023-03-21T04:32:18;8.50;99.90
32534;DHT22;18973;48.580;8.912;2023-03-21T04:34:44;8.50;99.90
32534;DHT22;18973;48.580;8.912;2023-03-21T04:37:16;8.50;99.90
32534;DHT22;18973;48.580;8.912;2023-03-21T04:39:42;8.30;99.90
32534;DHT22;18973;48.580;8.912;2023-03-21T04:42:07;8.00;99.90
32534;DHT22;18973;48.580;8.912;2023-03-21T04:44:33;7.90;99.90
32534;DHT22;18973;48.580;8.912;2023-03-21T04:46:59;7.90;99.90
32534;DHT22;18973;48.580;8.912;2023-03-21T04:49:25;8.00;99.90
32534;DHT22;18973;48.580;8.912;2023-03-21T04:51:50;7.80;99.90
32534;DHT22;18973;48.580;8.912;2023-03-21T04:54:16;7.80;99.90
32534;DHT22;18973;48.580;8.912;2023-03-21T04:56:42;7.80;99.90
32534;DHT22;18973;48.580;8.912;2023-03-21T04:59:11;8.00;99.90
32534;DHT22;18973;48.580;8.912;2023-03-21T05:01:37;8.00;99.90
32534;DHT22;18973;48.580;8.912;2023-03-21T05:04:05;8.00;99.90
32534;DHT22;18973;48.580;8.912;2023-03-21T05:06:31;8.00;99.90
32534;DHT22;18973;48.580;8.912;2023-03-21T05:08:59;7.90;99.90
32534;DHT22;18973;48.580;8.912;2023-03-21T05:11:26;7.90;99.90
32534;DHT22;18973;48.580;8.912;2023-03-21T05:13:52;7.80;99.90
32534;DHT22;18973;48.580;8.912;2023-03-21T05:16:18;7.90;99.90
32534;DHT22;18973;48.580;8.912;2023-03-21T05:18:43;7.90;99.90
32534;DHT22;18973;48.580;8.912;2023-03-21T05:21:09;7.90;99.90
32534;DHT22;18973;48.580;8.912;2023-03-21T05:23:36;7.90;99.90
32534;DHT22;18973;48.580;8.912;2023-03-21T05:26:08;8.00;99.90
32534;DHT22;18973;48.580;8.912;2023-03-21T05:28:34;7.90;99.90
32534;DHT22;18973;48.580;8.912;2023-03-21T05:31:05;7.80;99.90
32534;DHT22;18973;48.580;8.912;2023-03-21T05:33:31;7.70;99.90
32534;DHT22;18973;48.580;8.912;2023-03-21T05:35:57;7.60;99.90
32534;DHT22;18973;48.580;8.912;2023-03-21T05:38:23;7.50;99.90
32534;DHT22;18973;48.580;8.912;2023-03-21T05:40:50;7.50;99.90
32534;DHT22;18973;48.580;8.912;2023-03-21T05:43:16;7.50;99.90
32534;DHT22;18973;48.580;8.912;2023-03-21T05:45:42;7.50;99.90
32534;DHT22;18973;48.580;8.912;2023-03-21T05:48:08;7.50;99.90
32534;DHT22;18973;48.580;8.912;2023-03-21T05:50:33;7.40;99.90
32534;DHT22;18973;48.580;8.912;2023-03-21T05:52:59;7.40;99.90
32534;DHT22;18973;48.580;8.912;2023-03-21T05:55:25;7.40;99.90
32534;DHT22;18973;48.580;8.912;2023-03-21T05:57:51;7.30;99.90
32534;DHT22;18973;48.580;8.912;2023-03-21T06:00:17;7.30;99.90
32534;DHT22;18973;48.580;8.912;2023-03-21T06:02:43;7.30;99.90
32534;DHT22;18973;48.580;8.912;2023-03-21T06:05:09;7.30;99.90
32534;DHT22;18973;48.580;8.912;2023-03-21T06:07:35;7.30;99.90
32534;DHT22;18973;48.580;8.912;2023-03-21T06:10:02;7.30;99.90
32534;DHT22;18973;48.580;8.912;2023-03-21T06:12:28;7.30;99.90
32534;DHT22;18973;48.580;8.912;2023-03-21T06:14:54;7.30;99.90
32534;DHT22;18973;48.580;8.912;2023-03-21T06:17:19;7.30;99.90
32534;DHT22;18973;48.580;8.912;2023-03-21T06:19:45;7.30;99.90
32534;DHT22;18973;48.580;8.912;2023-03-21T06:22:11;7.30;99.90
32534;DHT22;18973;48.580;8.912;2023-03-21T06:24:36;7.30;99.90
32534;DHT22;18973;48.580;8.912;2023-03-21T06:27:03;7.30;99.90
32534;DHT22;18973;48.580;8.912;2023-03-21T06:29:29;7.30;99.90
32534;DHT22;18973;48.580;8.912;2023-03-21T06:31:55;7.40;99.90
32534;DHT22;18973;48.580;8.912;2023-03-21T06:34:21;7.40;99.90
32534;DHT22;18973;48.580;8.912;2023-03-21T06:36:47;7.50;99.90
32534;DHT22;18973;48.580;8.912;2023-03-21T06:39:12;7.50;99.90
32534;DHT22;18973;48.580;8.912;2023-03-21T06:41:40;7.60;99.90
32534;DHT22;18973;48.580;8.912;2023-03-21T06:44:06;7.60;99.90
32534;DHT22;18973;48.580;8.912;2023-03-21T06:46:31;7.70;99.90
32534;DHT22;18973;48.580;8.912;2023-03-21T06:48:57;7.70;99.90
32534;DHT22;18973;48.580;8.912;2023-03-21T06:51:23;7.80;99.90
32534;DHT22;18973;48.580;8.912;2023-03-21T06:53:49;7.80;99.90
32534;DHT22;18973;48.580;8.912;2023-03-21T06:56:15;7.80;99.90
32534;DHT22;18973;48.580;8.912;2023-03-21T06:58:41;7.90;99.90
32534;DHT22;18973;48.580;8.912;2023-03-21T07:01:07;7.90;99.90
32534;DHT22;18973;48.580;8.912;2023-03-21T07:03:33;7.90;99.90
32534;DHT22;18973;48.580;8.912;2023-03-21T07:06:10;8.20;99.90
32534;DHT22;18973;48.580;8.912;2023-03-21T07:08:40;8.50;99.90
32534;DHT22;18973;48.580;8.912;2023-03-21T07:11:06;8.80;99.90
32534;DHT22;18973;48.580;8.912;2023-03-21T07:13:32;9.10;99.90
32534;DHT22;18973;48.580;8.912;2023-03-21T07:15:59;9.40;99.90
32534;DHT22;18973;48.580;8.912;2023-03-21T07:18:25;9.50;99.90
32534;DHT22;18973;48.580;8.912;2023-03-21T07:20:51;9.80;99.90
32534;DHT22;18973;48.580;8.912;2023-03-21T07:23:21;9.90;99.90
32534;DHT22;18973;48.580;8.912;2023-03-21T07:25:49;10.10;99.90
32534;DHT22;18973;48.580;8.912;2023-03-21T07:28:15;10.10;99.90
32534;DHT22;18973;48.580;8.912;2023-03-21T07:30:42;10.20;99.90
32534;DHT22;18973;48.580;8.912;2023-03-21T07:33:08;10.30;99.90
32534;DHT22;18973;48.580;8.912;2023-03-21T07:35:34;10.50;99.90
32534;DHT22;18973;48.580;8.912;2023-03-21T07:38:02;10.60;99.90
32534;DHT22;18973;48.580;8.912;2023-03-21T07:40:28;10.60;99.90
32534;DHT22;18973;48.580;8.912;2023-03-21T07:42:54;10.70;99.90
32534;DHT22;18973;48.580;8.912;2023-03-21T07:45:19;10.60;99.90
32534;DHT22;18973;48.580;8.912;2023-03-21T07:47:48;10.70;99.90
32534;DHT22;18973;48.580;8.912;2023-03-21T07:50:14;10.80;99.90
32534;DHT22;18973;48.580;8.912;2023-03-21T07:52:40;11.00;99.90
32534;DHT22;18973;48.580;8.912;2023-03-21T07:55:07;11.10;99.90
32534;DHT22;18973;48.580;8.912;2023-03-21T07:57:33;11.20;99.90
32534;DHT22;18973;48.580;8.912;2023-03-21T07:59:58;11.20;99.90
32534;DHT22;18973;48.580;8.912;2023-03-21T08:02:24;11.40;99.90
32534;DHT22;18973;48.580;8.912;2023-03-21T08:04:50;11.70;99.90
32534;DHT22;18973;48.580;8.912;2023-03-21T08:07:17;11.90;99.90
32534;DHT22;18973;48.580;8.912;2023-03-21T08:09:43;12.10;99.90
32534;DHT22;18973;48.580;8.912;2023-03-21T08:12:09;12.10;99.90
32534;DHT22;18973;48.580;8.912;2023-03-21T08:14:35;12.30;99.90
32534;DHT22;18973;48.580;8.912;2023-03-21T08:17:02;12.50;99.90
32534;DHT22;18973;48.580;8.912;2023-03-21T08:19:28;12.10;99.90
32534;DHT22;18973;48.580;8.912;2023-03-21T08:21:53;12.20;99.90
32534;DHT22;18973;48.580;8.912;2023-03-21T08:24:19;12.50;99.90
32534;DHT22;18973;48.580;8.912;2023-03-21T08:26:45;12.70;99.90
32534;DHT22;18973;48.580;8.912;2023-03-21T08:29:14;12.90;99.90
32534;DHT22;18973;48.580;8.912;2023-03-21T08:31:40;13.10;99.90
32534;DHT22;18973;48.580;8.912;2023-03-21T08:34:05;13.00;99.90
32534;DHT22;18973;48.580;8.912;2023-03-21T08:36:32;13.00;99.90
32534;DHT22;18973;48.580;8.912;2023-03-21T08:39:01;13.40;99.90
32534;DHT22;18973;48.580;8.912;2023-03-21T08:41:31;13.60;99.90
32534;DHT22;18973;48.580;8.912;2023-03-21T08:43:57;13.90;99.90
32534;DHT22;18973;48.580;8.912;2023-03-21T08:46:22;14.20;99.90
32534;DHT22;18973;48.580;8.912;2023-03-21T08:48:48;14.50;99.10
32534;DHT22;18973;48.580;8.912;2023-03-21T08:51:14;14.70;98.90
32534;DHT22;18973;48.580;8.912;2023-03-21T08:53:40;14.70;97.30
32534;DHT22;18973;48.580;8.912;2023-03-21T08:56:06;14.80;97.70
32534;DHT22;18973;48.580;8.912;2023-03-21T08:58:32;15.00;96.90
32534;DHT22;18973;48.580;8.912;2023-03-21T09:00:58;15.20;97.30
32534;DHT22;18973;48.580;8.912;2023-03-21T09:03:24;15.40;97.60
32534;DHT22;18973;48.580;8.912;2023-03-21T09:05:54;15.50;96.30
32534;DHT22;18973;48.580;8.912;2023-03-21T09:08:21;15.60;96.40
32534;DHT22;18973;48.580;8.912;2023-03-21T09:10:51;15.50;95.50
32534;DHT22;18973;48.580;8.912;2023-03-21T09:13:17;15.60;94.60
32534;DHT22;18973;48.580;8.912;2023-03-21T09:15:43;15.70;94.90
32534;DHT22;18973;48.580;8.912;2023-03-21T09:18:10;15.80;95.00
32534;DHT22;18973;48.580;8.912;2023-03-21T09:20:44;15.80;94.90
32534;DHT22;18973;48.580;8.912;2023-03-21T09:23:11;15.70;94.40
32534;DHT22;18973;48.580;8.912;2023-03-21T09:25:38;15.80;95.30
32534;DHT22;18973;48.580;8.912;2023-03-21T09:28:04;16.00;93.80
32534;DHT22;18973;48.580;8.912;2023-03-21T09:30:32;16.00;92.50
32534;DHT22;18973;48.580;8.912;2023-03-21T09:33:03;15.90;92.00
32534;DHT22;18973;48.580;8.912;2023-03-21T09:35:31;15.80;91.30
32534;DHT22;18973;48.580;8.912;2023-03-21T09:37:57;15.90;91.50
32534;DHT22;18973;48.580;8.912;2023-03-21T09:43:31;16.10;91.10
32534;DHT22;18973;48.580;8.912;2023-03-21T09:48:45;16.00;92.00
32534;DHT22;18973;48.580;8.912;2023-03-21T09:51:16;16.10;92.40
32534;DHT22;18973;48.580;8.912;2023-03-21T09:53:45;16.10;92.20
32534;DHT22;18973;48.580;8.912;2023-03-21T09:56:13;16.10;91.80
32534;DHT22;18973;48.580;8.912;2023-03-21T09:58:40;16.10;91.10
32534;DHT22;18973;48.580;8.912;2023-03-21T10:01:09;16.10;91.30
32534;DHT22;18973;48.580;8.912;2023-03-21T10:03:47;16.00;91.20
32534;DHT22;18973;48.580;8.912;2023-03-21T10:06:14;16.00;91.90
32534;DHT22;18973;48.580;8.912;2023-03-21T10:08:45;16.10;91.10
32534;DHT22;18973;48.580;8.912;2023-03-21T10:11:18;16.00;91.60
32534;DHT22;18973;48.580;8.912;2023-03-21T10:14:10;15.80;92.20
32534;DHT22;18973;48.580;8.912;2023-03-21T10:16:42;15.90;91.90
32534;DHT22;18973;48.580;8.912;2023-03-21T10:19:15;15.80;92.30
32534;DHT22;18973;48.580;8.912;2023-03-21T10:21:45;15.80;93.60
32534;DHT22;18973;48.580;8.912;2023-03-21T10:24:15;16.00;91.70
32534;DHT22;18973;48.580;8.912;2023-03-21T10:26:42;16.10;91.20
32534;DHT22;18973;48.580;8.912;2023-03-21T10:29:11;16.10;91.10
32534;DHT22;18973;48.580;8.912;2023-03-21T10:31:39;16.00;91.00
32534;DHT22;18973;48.580;8.912;2023-03-21T10:34:15;15.90;91.40
32534;DHT22;18973;48.580;8.912;2023-03-21T10:36:43;15.90;92.30
32534;DHT22;18973;48.580;8.912;2023-03-21T10:39:37;15.90;91.30
32534;DHT22;18973;48.580;8.912;2023-03-21T10:42:04;16.00;91.60
32534;DHT22;18973;48.580;8.912;2023-03-21T10:44:33;16.00;90.00
32534;DHT22;18973;48.580;8.912;2023-03-21T10:47:07;16.00;91.00
32534;DHT22;18973;48.580;8.912;2023-03-21T10:49:35;16.00;91.00
32534;DHT22;18973;48.580;8.912;2023-03-21T10:52:04;16.00;91.20
32534;DHT22;18973;48.580;8.912;2023-03-21T10:54:33;16.10;93.20
32534;DHT22;18973;48.580;8.912;2023-03-21T10:57:14;16.00;93.00
32534;DHT22;18973;48.580;8.912;2023-03-21T10:59:45;16.00;91.40
32534;DHT22;18973;48.580;8.912;2023-03-21T11:02:33;16.20;91.40
32534;DHT22;18973;48.580;8.912;2023-03-21T11:05:06;16.40;91.40
32534;DHT22;18973;48.580;8.912;2023-03-21T11:07:34;16.40;90.50
32534;DHT22;18973;48.580;8.912;2023-03-21T11:10:12;16.40;90.40
32534;DHT22;18973;48.580;8.912;2023-03-21T11:12:40;16.40;92.40
32534;DHT22;18973;48.580;8.912;2023-03-21T11:15:46;16.40;91.60
32534;DHT22;18973;48.580;8.912;2023-03-21T11:18:24;16.50;91.80
32534;DHT22;18973;48.580;8.912;2023-03-21T11:20:54;16.60;91.80
32534;DHT22;18973;48.580;8.912;2023-03-21T11:23:26;16.60;90.20
32534;DHT22;18973;48.580;8.912;2023-03-21T11:25:53;16.50;90.50
32534;DHT22;18973;48.580;8.912;2023-03-21T11:28:22;16.40;90.20
32534;DHT22;18973;48.580;8.912;2023-03-21T11:33:17;16.20;85.60
32534;DHT22;18973;48.580;8.912;2023-03-21T11:35:43;16.20;85.90
32534;DHT22;18973;48.580;8.912;2023-03-21T11:38:29;16.10;84.10
32534;DHT22;18973;48.580;8.912;2023-03-21T11:40:58;16.00;80.30
32534;DHT22;18973;48.580;8.912;2023-03-21T11:46:07;15.90;76.90
32534;DHT22;18973;48.580;8.912;2023-03-21T11:48:45;15.90;78.60
32534;DHT22;18973;48.580;8.912;2023-03-21T11:51:33;15.90;81.50
32534;DHT22;18973;48.580;8.912;2023-03-21T11:54:11;16.00;75.20
32534;DHT22;18973;48.580;8.912;2023-03-21T12:02:23;16.20;79.50
32534;DHT22;18973;48.580;8.912;2023-03-21T12:05:07;16.40;85.60
32534;DHT22;18973;48.580;8.912;2023-03-21T12:18:50;17.10;74.30
32534;DHT22;18973;48.580;8.912;2023-03-21T12:24:17;16.60;78.50
32534;DHT22;18973;48.580;8.912;2023-03-21T12:32:50;16.40;78.70
32534;DHT22;18973;48.580;8.912;2023-03-21T12:35:31;16.50;78.20
32534;DHT22;18973;48.580;8.912;2023-03-21T12:43:23;16.90;73.70
32534;DHT22;18973;48.580;8.912;2023-03-21T12:46:15;17.10;74.90
32534;DHT22;18973;48.580;8.912;2023-03-21T12:48:48;17.20;76.60
32534;DHT22;18973;48.580;8.912;2023-03-21T12:51:18;17.40;76.10
32534;DHT22;18973;48.580;8.912;2023-03-21T12:56:33;17.50;72.10
32534;DHT22;18973;48.580;8.912;2023-03-21T12:59:15;17.50;75.40
32534;DHT22;18973;48.580;8.912;2023-03-21T13:01:45;17.60;70.50
32534;DHT22;18973;48.580;8.912;2023-03-21T13:04:30;17.50;70.40
32534;DHT22;18973;48.580;8.912;2023-03-21T13:06:59;17.40;73.30
32534;DHT22;18973;48.580;8.912;2023-03-21T13:09:40;17.40;71.00
32534;DHT22;18973;48.580;8.912;2023-03-21T13:14:50;17.70;75.60
32534;DHT22;18973;48.580;8.912;2023-03-21T13:17:31;17.90;71.20
32534;DHT22;18973;48.580;8.912;2023-03-21T13:20:24;17.80;72.50
32534;DHT22;18973;48.580;8.912;2023-03-21T13:22:53;17.90;69.30
32534;DHT22;18973;48.580;8.912;2023-03-21T13:25:24;17.70;67.40
32534;DHT22;18973;48.580;8.912;2023-03-21T13:27:51;17.70;66.80
32534;DHT22;18973;48.580;8.912;2023-03-21T13:30:23;17.70;67.70
32534;DHT22;18973;48.580;8.912;2023-03-21T13:33:08;17.70;66.10
32534;DHT22;18973;48.580;8.912;2023-03-21T13:35:41;17.50;66.00
32534;DHT22;18973;48.580;8.912;2023-03-21T13:38:20;17.60;69.00
32534;DHT22;18973;48.580;8.912;2023-03-21T13:46:14;17.70;70.50
32534;DHT22;18973;48.580;8.912;2023-03-21T13:49:13;17.40;64.40
32534;DHT22;18973;48.580;8.912;2023-03-21T13:51:50;17.00;67.30
32534;DHT22;18973;48.580;8.912;2023-03-21T14:02:27;17.40;65.30
32534;DHT22;18973;48.580;8.912;2023-03-21T14:05:04;17.50;64.00
32534;DHT22;18973;48.580;8.912;2023-03-21T14:07:36;17.40;65.10
32534;DHT22;18973;48.580;8.912;2023-03-21T14:10:16;17.50;64.50
32534;DHT22;18973;48.580;8.912;2023-03-21T14:12:43;17.50;61.10
32534;DHT22;18973;48.580;8.912;2023-03-21T14:15:18;17.40;62.40
32534;DHT22;18973;48.580;8.912;2023-03-21T14:20:24;17.20;62.50
32534;DHT22;18973;48.580;8.912;2023-03-21T14:22:50;17.30;61.70
32534;DHT22;18973;48.580;8.912;2023-03-21T14:25:19;17.30;64.10
32534;DHT22;18973;48.580;8.912;2023-03-21T14:27:48;17.40;63.40
32534;DHT22;18973;48.580;8.912;2023-03-21T14:30:33;17.40;60.90
32534;DHT22;18973;48.580;8.912;2023-03-21T14:33:15;17.30;61.30
32534;DHT22;18973;48.580;8.912;2023-03-21T14:35:45;17.30;61.70
32534;DHT22;18973;48.580;8.912;2023-03-21T14:38:38;17.20;60.90
32534;DHT22;18973;48.580;8.912;2023-03-21T14:41:05;17.20;62.00
32534;DHT22;18973;48.580;8.912;2023-03-21T14:43:31;17.20;64.40
32534;DHT22;18973;48.580;8.912;2023-03-21T14:45:59;17.30;62.50
32534;DHT22;18973;48.580;8.912;2023-03-21T14:48:31;17.40;61.20
32534;DHT22;18973;48.580;8.912;2023-03-21T14:51:00;17.30;62.10
32534;DHT22;18973;48.580;8.912;2023-03-21T14:53:36;17.30;64.00
32534;DHT22;18973;48.580;8.912;2023-03-21T14:58:40;17.40;62.90
32534;DHT22;18973;48.580;8.912;2023-03-21T15:01:16;17.40;61.20
32534;DHT22;18973;48.580;8.912;2023-03-21T15:03:49;17.40;60.40
32534;DHT22;18973;48.580;8.912;2023-03-21T15:06:15;17.40;62.10
32534;DHT22;18973;48.580;8.912;2023-03-21T15:08:54;17.50;62.10
32534;DHT22;18973;48.580;8.912;2023-03-21T15:11:32;17.40;61.20
32534;DHT22;18973;48.580;8.912;2023-03-21T15:14:00;17.40;61.10
32534;DHT22;18973;48.580;8.912;2023-03-21T15:16:27;17.30;63.70
32534;DHT22;18973;48.580;8.912;2023-03-21T15:18:53;17.30;63.40
32534;DHT22;18973;48.580;8.912;2023-03-21T15:21:26;17.30;64.70
32534;DHT22;18973;48.580;8.912;2023-03-21T15:23:59;17.20;65.20
32534;DHT22;18973;48.580;8.912;2023-03-21T15:26:26;17.20;63.30
32534;DHT22;18973;48.580;8.912;2023-03-21T15:28:58;17.20;64.60
32534;DHT22;18973;48.580;8.912;2023-03-21T15:31:33;17.20;66.60
32534;DHT22;18973;48.580;8.912;2023-03-21T15:33:59;17.10;65.40
32534;DHT22;18973;48.580;8.912;2023-03-21T15:36:42;17.00;64.70
32534;DHT22;18973;48.580;8.912;2023-03-21T15:39:12;16.90;63.20
32534;DHT22;18973;48.580;8.912;2023-03-21T15:41:38;16.90;64.00
32534;DHT22;18973;48.580;8.912;2023-03-21T15:44:11;16.80;64.20
32534;DHT22;18973;48.580;8.912;2023-03-21T15:46:49;16.70;64.00
32534;DHT22;18973;48.580;8.912;2023-03-21T15:51:44;16.70;64.30
32534;DHT22;18973;48.580;8.912;2023-03-21T15:54:15;16.80;66.70
32534;DHT22;18973;48.580;8.912;2023-03-21T15:56:42;16.70;66.30
32534;DHT22;18973;48.580;8.912;2023-03-21T15:59:14;16.60;66.60
32534;DHT22;18973;48.580;8.912;2023-03-21T16:01:47;16.60;66.50
32534;DHT22;18973;48.580;8.912;2023-03-21T16:04:14;16.60;67.00
32534;DHT22;18973;48.580;8.912;2023-03-21T16:07:12;16.50;64.80
32534;DHT22;18973;48.580;8.912;2023-03-21T16:09:44;16.60;65.00
32534;DHT22;18973;48.580;8.912;2023-03-21T16:12:12;16.60;63.00
32534;DHT22;18973;48.580;8.912;2023-03-21T16:14:38;16.50;64.10
32534;DHT22;18973;48.580;8.912;2023-03-21T16:19:52;16.50;65.70
32534;DHT22;18973;48.580;8.912;2023-03-21T16:22:19;16.50;64.50
32534;DHT22;18973;48.580;8.912;2023-03-21T16:24:46;16.40;64.50
32534;DHT22;18973;48.580;8.912;2023-03-21T16:27:12;16.40;62.30
32534;DHT22;18973;48.580;8.912;2023-03-21T16:29:38;16.30;62.70
32534;DHT22;18973;48.580;8.912;2023-03-21T16:32:05;16.00;63.40
32534;DHT22;18973;48.580;8.912;2023-03-21T16:34:31;16.00;64.20
32534;DHT22;18973;48.580;8.912;2023-03-21T16:36:57;16.00;65.20
32534;DHT22;18973;48.580;8.912;2023-03-21T16:39:24;16.00;65.20
32534;DHT22;18973;48.580;8.912;2023-03-21T16:41:51;16.00;64.60
32534;DHT22;18973;48.580;8.912;2023-03-21T16:44:18;15.80;64.90
32534;DHT22;18973;48.580;8.912;2023-03-21T16:46:44;15.90;64.90
32534;DHT22;18973;48.580;8.912;2023-03-21T16:49:23;15.90;63.40
32534;DHT22;18973;48.580;8.912;2023-03-21T16:51:49;15.90;62.40
32534;DHT22;18973;48.580;8.912;2023-03-21T16:54:15;15.70;61.40
32534;DHT22;18973;48.580;8.912;2023-03-21T16:56:45;15.70;62.50
32534;DHT22;18973;48.580;8.912;2023-03-21T16:59:12;15.70;62.00
32534;DHT22;18973;48.580;8.912;2023-03-21T17:01:39;15.50;61.60
32534;DHT22;18973;48.580;8.912;2023-03-21T17:04:06;15.60;63.00
32534;DHT22;18973;48.580;8.912;2023-03-21T17:06:36;15.40;61.60
32534;DHT22;18973;48.580;8.912;2023-03-21T17:09:03;15.50;61.80
32534;DHT22;18973;48.580;8.912;2023-03-21T17:11:29;15.60;62.10
32534;DHT22;18973;48.580;8.912;2023-03-21T17:14:00;15.60;62.50
32534;DHT22;18973;48.580;8.912;2023-03-21T17:16:26;15.90;86.00
32534;DHT22;18973;48.580;8.912;2023-03-21T17:18:53;16.30;90.00
32534;DHT22;18973;48.580;8.912;2023-03-21T17:21:26;16.80;76.10
32534;DHT22;18973;48.580;8.912;2023-03-21T17:23:53;16.70;64.00
32534;DHT22;18973;48.580;8.912;2023-03-21T17:26:26;16.60;63.10
32534;DHT22;18973;48.580;8.912;2023-03-21T17:28:53;16.30;62.20
32534;DHT22;18973;48.580;8.912;2023-03-21T17:31:20;16.10;62.70
32534;DHT22;18973;48.580;8.912;2023-03-21T17:33:47;15.90;63.80
32534;DHT22;18973;48.580;8.912;2023-03-21T17:36:34;15.90;64.20
32534;DHT22;18973;48.580;8.912;2023-03-21T17:39:01;15.60;63.70
32534;DHT22;18973;48.580;8.912;2023-03-21T17:41:27;15.60;64.20
32534;DHT22;18973;48.580;8.912;2023-03-21T17:43:53;15.50;64.60
32534;DHT22;18973;48.580;8.912;2023-03-21T17:46:21;15.50;64.60
32534;DHT22;18973;48.580;8.912;2023-03-21T17:48:48;15.60;64.30